Time;durP1;ratioP1;P1;durP2;ratioP2;P2;SDS_P1;SDS_P2;PMS_P1;PMS_P2;Temp;Humidity;BMP_temperature;BMP_pressure;BME280_temperature;BME280_humidity;BME280_pressure;Samples;Min_cycle;Max_cycle;Signal;HPM_P1;HPM_P2
2023/11/21 00:00:14;;;;;;;18.80;3.73;;;;;;;8.74;100.00;102423.03;5022163;28;21080;-64
2023/11/21 00:02:40;;;;;;;21.17;4.07;;;;;;;8.65;100.00;102412.34;5019412;28;20465;-64
2023/11/21 00:05:11;;;;;;;14.30;4.57;;;;;;;8.79;100.00;102436.81;5025216;28;20455;-65
2023/11/21 00:07:37;;;;;;;17.70;4.83;;;;;;;8.73;100.00;102439.22;5027545;28;20431;-63
2023/11/21 00:10:05;;;;;;;17.00;4.73;;;;;;;8.81;100.00;102444.69;5020128;28;20428;-64
2023/11/21 00:12:31;;;;;;;20.73;5.73;;;;;;;8.88;100.00;102447.59;5020892;28;20455;-63
2023/11/21 00:14:56;;;;;;;16.90;4.40;;;;;;;8.80;100.00;102457.22;5017498;28;20435;-64
2023/11/21 00:17:22;;;;;;;15.40;5.00;;;;;;;8.76;100.00;102428.22;5025579;28;20514;-64
2023/11/21 00:19:47;;;;;;;12.87;4.17;;;;;;;8.54;100.00;102390.19;5018575;28;20192;-64
2023/11/21 00:22:13;;;;;;;19.07;5.03;;;;;;;8.90;100.00;102459.00;5023295;28;20291;-64
2023/11/21 00:24:38;;;;;;;18.50;4.87;;;;;;;8.89;100.00;102455.50;5023414;28;20267;-65
2023/11/21 00:27:03;;;;;;;17.40;4.60;;;;;;;8.97;100.00;102460.13;5018953;28;20215;-65
2023/11/21 00:29:29;;;;;;;19.83;4.60;;;;;;;8.53;100.00;102390.31;5019331;28;20254;-64
2023/11/21 00:31:54;;;;;;;14.10;4.43;;;;;;;8.91;100.00;102458.88;5017827;28;20307;-65
2023/11/21 00:34:20;;;;;;;16.73;5.00;;;;;;;7.50;100.00;102233.56;5021196;28;20203;-64
2023/11/21 00:36:45;;;;;;;14.60;4.10;;;;;;;8.77;100.00;102433.44;5017838;28;20275;-64
2023/11/21 00:39:11;;;;;;;17.47;4.50;;;;;;;9.01;100.00;102465.00;5022468;28;20191;-64
2023/11/21 00:41:37;;;;;;;16.83;4.33;;;;;;;8.95;100.00;102472.78;5019848;28;20550;-64
2023/11/21 00:44:03;;;;;;;15.53;3.80;;;;;;;8.80;100.00;102424.28;5022531;28;20439;-65
2023/11/21 00:46:29;;;;;;;18.40;4.53;;;;;;;8.76;100.00;102437.09;5021741;28;20287;-64
2023/11/21 00:48:55;;;;;;;18.00;5.47;;;;;;;8.93;100.00;102453.34;5021359;28;20180;-64
2023/11/21 00:51:21;;;;;;;17.03;4.03;;;;;;;8.76;100.00;102426.38;5024470;28;20270;-64
2023/11/21 00:53:47;;;;;;;16.57;4.33;;;;;;;8.73;100.00;102439.22;5017647;28;20490;-65
2023/11/21 00:56:13;;;;;;;13.13;3.60;;;;;;;8.92;100.00;102475.75;5023098;28;20439;-64
2023/11/21 00:58:42;;;;;;;16.33;4.30;;;;;;;8.57;100.00;102421.97;5025892;28;20534;-65
2023/11/21 01:01:08;;;;;;;16.20;3.80;;;;;;;8.94;100.00;102471.09;5025285;28;20187;-66
2023/11/21 01:03:33;;;;;;;12.40;3.60;;;;;;;9.21;100.00;102489.84;5020860;28;20455;-65
2023/11/21 01:05:58;;;;;;;15.60;4.53;;;;;;;8.82;100.00;102452.56;5019304;28;20219;-65
2023/11/21 01:08:24;;;;;;;13.93;4.30;;;;;;;9.10;100.00;102490.03;5020296;28;20207;-66
2023/11/21 01:10:49;;;;;;;15.77;3.90;;;;;;;9.22;100.00;102496.03;5025764;28;20184;-65
2023/11/21 01:13:15;;;;;;;15.03;3.60;;;;;;;9.23;100.00;102497.72;5021640;28;20277;-66
2023/11/21 01:15:41;;;;;;;12.80;3.83;;;;;;;9.14;100.00;102496.78;5016178;28;20407;-65
2023/11/21 01:18:08;;;;;;;18.77;4.37;;;;;;;9.14;100.00;102496.78;5017852;28;20204;-66
2023/11/21 01:20:34;;;;;;;11.13;2.90;;;;;;;9.25;100.00;102503.75;5019429;28;20435;-65
2023/11/21 01:22:59;;;;;;;12.77;3.67;;;;;;;9.10;100.00;102473.97;5018586;28;20459;-65
2023/11/21 01:25:25;;;;;;;13.23;3.90;;;;;;;9.25;100.00;102501.09;5017079;28;20212;-65
2023/11/21 01:27:51;;;;;;;16.60;4.17;;;;;;;9.25;100.00;102512.63;5019973;28;20243;-66
2023/11/21 01:30:17;;;;;;;15.00;3.90;;;;;;;9.28;100.00;102520.34;5018836;28;20445;-66
2023/11/21 01:32:43;;;;;;;15.60;3.70;;;;;;;9.13;100.00;102521.03;5013534;28;20599;-65
2023/11/21 01:35:10;;;;;;;14.13;4.87;;;;;;;9.10;100.00;102532.03;5015153;28;20439;-65
2023/11/21 01:37:36;;;;;;;27.67;5.30;;;;;;;9.10;100.00;102530.19;5020394;28;20196;-66
2023/11/21 01:40:02;;;;;;;10.60;3.23;;;;;;;8.83;100.00;102499.72;5020136;28;20447;-65
2023/11/21 01:42:29;;;;;;;12.43;3.57;;;;;;;9.14;100.00;102530.72;5016849;28;20487;-65
2023/11/21 01:44:54;;;;;;;17.30;4.03;;;;;;;8.77;100.00;102460.19;5020047;28;20988;-65
2023/11/21 01:47:21;;;;;;;23.13;4.40;;;;;;;8.78;100.00;102480.59;5020849;28;20447;-65
2023/11/21 01:49:47;;;;;;;15.17;5.37;;;;;;;9.14;100.00;102533.41;5022457;28;20215;-65
2023/11/21 01:52:12;;;;;;;21.53;4.23;;;;;;;9.15;100.00;102535.13;5026932;28;20910;-65
2023/11/21 01:54:38;;;;;;;13.93;3.70;;;;;;;8.57;100.00;102474.63;5027151;28;20529;-65
2023/11/21 01:57:06;;;;;;;16.37;4.33;;;;;;;9.09;100.00;102557.13;5026324;28;20250;-65
2023/11/21 01:59:39;;;;;;;16.03;4.60;;;;;;;9.12;100.00;102554.97;5025770;28;20216;-65
2023/11/21 02:02:09;;;;;;;16.37;4.30;;;;;;;9.03;100.00;102551.34;5024579;28;20468;-65
2023/11/21 02:04:36;;;;;;;13.03;4.60;;;;;;;9.11;100.00;102571.19;5022970;28;20443;-65
2023/11/21 02:07:05;;;;;;;15.60;4.00;;;;;;;9.10;100.00;102578.38;5030263;28;20446;-65
2023/11/21 02:09:31;;;;;;;13.90;4.90;;;;;;;9.12;100.00;102579.06;5029458;28;20438;-65
2023/11/21 02:11:58;;;;;;;10.30;3.77;;;;;;;9.11;100.00;102585.41;5030461;28;20516;-64
2023/11/21 02:14:26;;;;;;;18.43;3.80;;;;;;;9.07;100.00;102585.84;5029918;28;20897;-65
2023/11/21 02:16:53;;;;;;;11.90;5.23;;;;;;;9.03;100.00;102591.50;5022426;28;20428;-64
2023/11/21 02:19:22;;;;;;;15.87;4.73;;;;;;;9.08;100.00;102607.09;5021394;28;20438;-65
2023/11/21 02:21:49;;;;;;;12.23;4.57;;;;;;;9.06;100.00;102619.81;5022918;28;20458;-65
2023/11/21 02:24:15;;;;;;;16.97;4.30;;;;;;;8.81;100.00;102573.94;5023906;28;21026;-65
2023/11/21 02:26:41;;;;;;;15.30;4.27;;;;;;;9.10;100.00;102633.75;5025894;28;20490;-65
2023/11/21 02:29:10;;;;;;;14.30;4.70;;;;;;;9.00;100.00;102631.09;5020318;28;20439;-65
2023/11/21 02:31:37;;;;;;;12.40;3.83;;;;;;;8.81;100.00;102606.06;5025164;28;20186;-65
2023/11/21 02:34:03;;;;;;;10.43;3.67;;;;;;;9.10;100.00;102663.19;5021542;28;20431;-65
2023/11/21 02:36:28;;;;;;;18.10;5.73;;;;;;;9.09;100.00;102661.53;5026084;28;20434;-65
2023/11/21 02:38:53;;;;;;;12.10;4.53;;;;;;;9.05;100.00;102674.31;5024719;28;20193;-64
2023/11/21 02:41:19;;;;;;;24.57;5.07;;;;;;;9.05;100.00;102682.34;5027763;28;20204;-65
2023/11/21 02:43:44;;;;;;;15.20;4.77;;;;;;;8.99;100.00;102656.16;5023247;28;20698;-64
2023/11/21 02:46:10;;;;;;;22.70;5.03;;;;;;;9.11;100.00;102686.28;5021396;28;20204;-65
2023/11/21 02:48:35;;;;;;;14.63;4.70;;;;;;;9.08;100.00;102699.97;5025886;28;20185;-65
2023/11/21 02:51:01;;;;;;;10.90;4.80;;;;;;;8.90;100.00;102657.03;5023693;28;20226;-65
2023/11/21 02:53:26;;;;;;;15.30;4.60;;;;;;;9.13;100.00;102703.91;5021606;28;20713;-64
2023/11/21 02:55:52;;;;;;;14.80;5.47;;;;;;;9.11;100.00;102711.22;5024912;28;20179;-65
2023/11/21 02:58:17;;;;;;;16.00;4.80;;;;;;;8.82;100.00;102703.22;5024913;28;20187;-65
2023/11/21 03:00:43;;;;;;;16.57;5.30;;;;;;;8.92;100.00;102706.75;5017500;28;20188;-65
2023/11/21 03:03:08;;;;;;;15.80;4.77;;;;;;;8.87;100.00;102717.03;5022125;28;20823;-66
2023/11/21 03:05:35;;;;;;;17.47;5.27;;;;;;;8.83;100.00;102700.41;5020307;28;20200;-65
2023/11/21 03:08:01;;;;;;;13.53;5.33;;;;;;;8.91;100.00;102715.78;5017054;28;20189;-64
2023/11/21 03:10:27;;;;;;;22.00;6.50;;;;;;;8.91;100.00;102722.94;5021881;28;20431;-65
2023/11/21 03:12:52;;;;;;;16.00;5.50;;;;;;;8.74;100.00;102695.94;5022903;28;20200;-64
2023/11/21 03:15:18;;;;;;;16.53;4.83;;;;;;;8.91;100.00;102728.28;5015822;28;20440;-65
2023/11/21 03:17:43;;;;;;;18.57;5.77;;;;;;;8.87;100.00;102727.72;5017460;28;20182;-64
2023/11/21 03:20:10;;;;;;;26.70;6.20;;;;;;;9.00;100.00;102739.00;5017677;28;20607;-65
2023/11/21 03:22:37;;;;;;;15.27;5.90;;;;;;;8.99;100.00;102725.75;5018798;28;20205;-65
2023/11/21 03:25:03;;;;;;;18.93;6.40;;;;;;;8.85;100.00;102694.06;5017134;28;20533;-65
2023/11/21 03:27:28;;;;;;;26.03;6.20;;;;;;;9.05;100.00;102736.75;5025919;28;21039;-65
2023/11/21 03:29:54;;;;;;;18.40;5.53;;;;;;;9.01;100.00;102724.63;5021626;28;20189;-65
2023/11/21 03:32:20;;;;;;;27.57;7.33;;;;;;;9.08;100.00;102756.19;5023425;28;20200;-64
2023/11/21 03:34:56;;;;;;;25.97;7.17;;;;;;;9.04;100.00;102759.16;5023238;28;20808;-65
2023/11/21 03:37:22;;;;;;;21.17;5.70;;;;;;;9.06;100.00;102775.06;5026821;28;20195;-65
2023/11/21 03:39:47;;;;;;;20.00;5.87;;;;;;;9.09;100.00;102785.50;5019861;28;20435;-65
2023/11/21 03:42:13;;;;;;;16.07;5.87;;;;;;;9.07;100.00;102794.66;5020193;28;20459;-65
2023/11/21 03:44:38;;;;;;;16.87;6.20;;;;;;;9.07;100.00;102810.72;5023849;28;20184;-65
2023/11/21 03:47:04;;;;;;;14.83;6.60;;;;;;;9.10;100.00;102821.16;5025567;28;20184;-65
2023/11/21 03:49:29;;;;;;;12.47;6.20;;;;;;;9.18;100.00;102826.66;5023605;28;20204;-65
2023/11/21 03:51:56;;;;;;;13.33;7.47;;;;;;;9.18;100.00;102832.00;5023550;28;20228;-65
2023/11/21 03:54:21;;;;;;;15.03;7.33;;;;;;;9.00;100.00;102808.59;5023785;28;20180;-64
2023/11/21 03:56:46;;;;;;;18.40;7.80;;;;;;;9.17;100.00;102844.53;5022954;28;20822;-64
2023/11/21 03:59:12;;;;;;;18.03;9.53;;;;;;;9.12;100.00;102843.28;5016438;28;20191;-65
2023/11/21 04:01:37;;;;;;;19.17;8.23;;;;;;;9.18;100.00;102851.59;5020743;28;20184;-64
2023/11/21 04:04:04;;;;;;;14.83;8.80;;;;;;;9.25;100.00;102859.88;5017190;28;20188;-65
2023/11/21 04:06:29;;;;;;;18.47;9.03;;;;;;;8.96;100.00;102823.22;5021028;28;20754;-65
2023/11/21 04:08:54;;;;;;;17.30;8.77;;;;;;;9.25;100.00;102868.75;5018804;28;20545;-64
2023/11/21 04:11:20;;;;;;;15.17;9.80;;;;;;;9.25;100.00;102884.00;5019748;28;20188;-65
2023/11/21 04:13:46;;;;;;;17.00;8.90;;;;;;;9.34;100.00;102885.81;5020699;28;20801;-63
2023/11/21 04:16:12;;;;;;;16.63;10.50;;;;;;;9.30;100.00;102879.06;5015696;28;20203;-65
2023/11/21 04:18:38;;;;;;;18.23;9.57;;;;;;;9.23;100.00;102875.28;5021059;28;20435;-65
2023/11/21 04:21:07;;;;;;;13.50;9.17;;;;;;;9.21;100.00;102883.44;5018923;28;21063;-64
2023/11/21 04:23:33;;;;;;;14.50;9.30;;;;;;;9.34;100.00;102895.69;4997687;28;20815;-65
2023/11/21 04:26:00;;;;;;;14.17;9.50;;;;;;;9.24;100.00;102883.16;5021588;28;20592;-65
2023/11/21 04:28:25;;;;;;;18.00;9.67;;;;;;;9.25;100.00;102873.28;5015443;28;20452;-65
2023/11/21 04:30:50;;;;;;;14.03;9.60;;;;;;;9.24;100.00;102887.66;5021693;28;20438;-65
2023/11/21 04:33:16;;;;;;;14.17;9.50;;;;;;;8.99;100.00;102856.91;5016659;28;20208;-64
2023/11/21 04:35:41;;;;;;;17.10;10.93;;;;;;;9.09;100.00;102875.69;5019457;28;20188;-64
2023/11/21 04:38:07;;;;;;;16.47;10.70;;;;;;;9.05;100.00;102867.94;5021246;28;20192;-64
2023/11/21 04:40:32;;;;;;;16.90;11.43;;;;;;;9.03;100.00;102848.47;5019355;28;20188;-65
2023/11/21 04:42:58;;;;;;;15.70;11.10;;;;;;;8.96;100.00;102830.44;5013437;28;20207;-65
2023/11/21 04:45:23;;;;;;;23.70;12.90;;;;;;;9.09;100.00;102875.69;5018285;28;20212;-65
2023/11/21 04:47:49;;;;;;;21.77;11.93;;;;;;;8.98;100.00;102857.91;5019506;28;20258;-65
2023/11/21 04:50:14;;;;;;;18.97;12.63;;;;;;;9.06;100.00;102871.44;5019223;28;20192;-65
2023/11/21 04:52:40;;;;;;;17.00;12.40;;;;;;;9.08;100.00;102879.31;5017858;28;20709;-65
2023/11/21 04:55:09;;;;;;;18.93;12.40;;;;;;;9.07;100.00;102883.84;5017431;28;20188;-65
2023/11/21 04:57:35;;;;;;;18.77;12.57;;;;;;;9.01;100.00;102873.69;5015272;28;21037;-65
2023/11/21 05:00:00;;;;;;;15.30;11.93;;;;;;;8.97;100.00;102873.13;5018805;28;20932;-65
2023/11/21 05:02:26;;;;;;;16.07;12.50;;;;;;;8.72;100.00;102854.91;5017544;28;20231;-65
2023/11/21 05:04:51;;;;;;;15.87;11.40;;;;;;;8.98;100.00;102884.66;5018784;28;20199;-65
2023/11/21 05:07:16;;;;;;;20.03;12.73;;;;;;;8.83;100.00;102886.91;5020059;28;20192;-64
2023/11/21 05:09:46;;;;;;;20.67;12.50;;;;;;;8.99;100.00;102878.31;5017460;28;20192;-65
2023/11/21 05:12:12;;;;;;;17.97;12.60;;;;;;;8.31;100.00;102788.03;5015833;28;20749;-65
2023/11/21 05:14:38;;;;;;;17.03;12.60;;;;;;;8.94;100.00;102881.44;5019707;28;20438;-65
2023/11/21 05:17:07;;;;;;;17.63;12.70;;;;;;;8.72;100.00;102860.25;5020896;28;20438;-65
2023/11/21 05:19:34;;;;;;;21.30;13.20;;;;;;;8.32;100.00;102787.03;5017257;28;20190;-64
2023/11/21 05:22:00;;;;;;;17.00;12.23;;;;;;;8.83;100.00;102869.00;5014998;28;20465;-65
2023/11/21 05:24:26;;;;;;;20.73;12.90;;;;;;;8.92;100.00;102858.47;5020607;28;20466;-65
2023/11/21 05:26:51;;;;;;;20.77;12.50;;;;;;;8.83;100.00;102863.66;5026045;28;20513;-65
2023/11/21 05:29:16;;;;;;;16.70;12.70;;;;;;;8.58;100.00;102811.50;5023604;28;20207;-66
2023/11/21 05:31:42;;;;;;;15.93;12.53;;;;;;;8.76;100.00;102851.78;5021554;28;20187;-65
2023/11/21 05:34:07;;;;;;;17.00;12.13;;;;;;;8.74;100.00;102852.94;5023826;28;20246;-64
2023/11/21 05:36:33;;;;;;;18.57;13.60;;;;;;;8.56;100.00;102845.56;5019792;28;20610;-64
2023/11/21 05:38:59;;;;;;;26.00;12.93;;;;;;;8.66;100.00;102853.63;5019906;28;20192;-64
2023/11/21 05:41:25;;;;;;;17.83;13.40;;;;;;;8.13;100.00;102757.59;5023188;28;20438;-64
2023/11/21 05:43:51;;;;;;;16.90;12.83;;;;;;;8.71;100.00;102850.53;5019770;28;20188;-64
2023/11/21 05:46:16;;;;;;;15.80;13.10;;;;;;;8.57;100.00;102863.31;5023736;28;20529;-64
2023/11/21 05:48:42;;;;;;;15.57;12.97;;;;;;;8.63;100.00;102858.41;5021722;28;20195;-64
2023/11/21 05:51:08;;;;;;;18.03;13.13;;;;;;;8.60;100.00;102846.97;5022065;28;20204;-65
2023/11/21 05:53:34;;;;;;;18.60;14.90;;;;;;;8.47;100.00;102826.81;5019698;28;20201;-65
2023/11/21 05:56:00;;;;;;;19.97;13.50;;;;;;;8.66;100.00;102856.28;5017248;28;20855;-65
2023/11/21 05:58:25;;;;;;;21.53;14.47;;;;;;;8.65;100.00;102868.00;5023073;28;20509;-65
2023/11/21 06:00:51;;;;;;;19.20;14.27;;;;;;;8.61;100.00;102863.88;5022792;28;20501;-65
2023/11/21 06:03:17;;;;;;;21.27;16.23;;;;;;;8.60;100.00;102863.03;5021707;28;20224;-64
2023/11/21 06:05:43;;;;;;;17.67;14.67;;;;;;;8.57;100.00;102857.97;5026337;28;20319;-64
2023/11/21 06:08:08;;;;;;;21.10;15.73;;;;;;;8.65;100.00;102862.63;5023818;28;21048;-64
2023/11/21 06:10:34;;;;;;;20.17;16.30;;;;;;;7.90;100.00;102744.44;5025358;28;20544;-65
2023/11/21 06:12:59;;;;;;;19.67;15.33;;;;;;;8.58;100.00;102858.78;5026296;28;20239;-65
2023/11/21 06:15:25;;;;;;;21.00;16.30;;;;;;;8.52;100.00;102845.97;5025959;28;20318;-65
2023/11/21 06:17:54;;;;;;;22.20;16.27;;;;;;;8.55;100.00;102872.44;5023822;28;20177;-65
2023/11/21 06:20:20;;;;;;;23.33;17.67;;;;;;;8.61;100.00;102877.25;5023526;28;20192;-65
2023/11/21 06:22:48;;;;;;;27.20;18.90;;;;;;;8.54;100.00;102876.97;5019307;28;20869;-65
2023/11/21 06:25:14;;;;;;;24.00;18.40;;;;;;;8.23;100.00;102817.28;5024522;28;20877;-65
2023/11/21 06:27:41;;;;;;;23.10;17.90;;;;;;;8.54;100.00;102862.75;5024933;28;20471;-64
2023/11/21 06:30:09;;;;;;;25.93;18.20;;;;;;;8.57;100.00;102865.16;5023367;28;20439;-64
2023/11/21 06:32:39;;;;;;;22.43;18.00;;;;;;;8.51;100.00;102855.00;5020688;28;20462;-65
2023/11/21 06:35:06;;;;;;;28.03;18.83;;;;;;;8.51;100.00;102850.47;5018912;28;20445;-65
2023/11/21 06:37:32;;;;;;;20.87;18.10;;;;;;;8.26;100.00;102813.47;5023260;28;20473;-65
2023/11/21 06:39:58;;;;;;;22.13;16.27;;;;;;;8.49;100.00;102841.75;5019202;28;20493;-64
2023/11/21 06:42:24;;;;;;;19.17;15.00;;;;;;;8.22;100.00;102818.25;5022089;28;20462;-67
2023/11/21 06:44:53;;;;;;;15.83;13.80;;;;;;;8.14;100.00;102815.41;5019015;28;20474;-64
2023/11/21 06:47:20;;;;;;;17.30;12.17;;;;;;;8.18;100.00;102832.03;5022461;28;20528;-65
2023/11/21 06:49:47;;;;;;;16.17;12.63;;;;;;;8.26;100.00;102843.72;5018078;28;20540;-65
2023/11/21 06:52:13;;;;;;;16.40;11.80;;;;;;;8.05;100.00;102827.75;5018082;28;21334;-65
2023/11/21 06:54:39;;;;;;;14.40;10.50;;;;;;;8.14;100.00;102855.50;5022978;28;20526;-65
2023/11/21 06:57:05;;;;;;;16.07;10.83;;;;;;;7.56;100.00;102770.56;5022782;28;20181;-65
2023/11/21 06:59:30;;;;;;;12.47;9.33;;;;;;;8.21;100.00;102877.19;5024925;28;20525;-65
2023/11/21 07:01:55;;;;;;;11.90;8.20;;;;;;;8.16;100.00;102877.63;5018761;28;20274;-65
2023/11/21 07:04:21;;;;;;;10.80;7.73;;;;;;;8.13;100.00;102872.53;5022303;28;20246;-65
2023/11/21 07:06:46;;;;;;;10.90;8.40;;;;;;;7.90;100.00;102837.09;5023358;28;22313;-65
2023/11/21 07:09:12;;;;;;;10.00;8.17;;;;;;;8.11;100.00;102871.81;5021307;28;20295;-65
2023/11/21 07:11:38;;;;;;;11.03;7.77;;;;;;;8.12;100.00;102874.34;5024200;28;20206;-65
2023/11/21 07:14:07;;;;;;;11.93;8.97;;;;;;;7.77;100.00;102813.25;5022668;28;20176;-64
2023/11/21 07:16:38;;;;;;;10.43;8.53;;;;;;;8.24;100.00;102884.94;5020871;28;20430;-65
2023/11/21 07:19:07;;;;;;;12.53;9.50;;;;;;;8.09;100.00;102890.63;5022740;28;20562;-65
2023/11/21 07:21:36;;;;;;;12.77;10.83;;;;;;;8.06;100.00;102864.19;5020769;28;20442;-65
2023/11/21 07:24:02;;;;;;;11.60;9.90;;;;;;;8.15;100.00;102916.00;5018938;28;20519;-64
2023/11/21 07:26:28;;;;;;;13.13;9.57;;;;;;;8.07;100.00;102897.09;5031466;28;20935;-65
2023/11/21 07:28:54;;;;;;;10.57;9.23;;;;;;;8.17;100.00;102929.25;5022430;28;20535;-64
2023/11/21 07:31:19;;;;;;;11.03;9.13;;;;;;;8.18;100.00;102923.75;5016783;28;20212;-65
2023/11/21 07:33:48;;;;;;;11.73;9.53;;;;;;;7.81;100.00;102868.13;5020724;28;20211;-65
2023/11/21 07:36:14;;;;;;;12.57;9.53;;;;;;;8.18;100.00;102939.78;5020100;28;20200;-65
2023/11/21 07:38:40;;;;;;;11.53;9.50;;;;;;;8.08;100.00;102913.00;5023092;28;20474;-65
2023/11/21 07:41:07;;;;;;;13.03;10.10;;;;;;;8.16;100.00;102925.72;5021614;28;20520;-64
2023/11/21 07:43:35;;;;;;;13.10;9.93;;;;;;;7.95;100.00;102900.81;5021538;28;20208;-65
2023/11/21 07:46:04;;;;;;;14.10;10.90;;;;;;;8.12;100.00;102945.66;5023706;28;20581;-65
2023/11/21 07:48:31;;;;;;;10.30;9.10;;;;;;;8.09;100.00;102920.03;5023259;28;20435;-64
2023/11/21 07:50:58;;;;;;;9.97;8.73;;;;;;;8.15;100.00;102942.72;5022260;28;20592;-65
2023/11/21 07:53:30;;;;;;;11.90;10.07;;;;;;;8.19;100.00;102940.63;5022889;28;20458;-65
2023/11/21 07:56:03;;;;;;;11.07;8.67;;;;;;;7.89;100.00;102899.53;5024847;28;20443;-65
2023/11/21 07:58:28;;;;;;;13.63;8.90;;;;;;;7.77;100.00;102909.44;5022296;28;20557;-65
2023/11/21 08:00:54;;;;;;;10.23;8.23;;;;;;;8.02;100.00;102960.81;5020356;28;20435;-65
2023/11/21 08:03:19;;;;;;;9.60;8.17;;;;;;;8.09;100.00;102961.97;5017679;28;20669;-65
2023/11/21 08:05:44;;;;;;;11.77;8.13;;;;;;;8.09;100.00;102973.50;5019647;28;20211;-65
2023/11/21 08:08:10;;;;;;;12.57;8.80;;;;;;;7.25;100.00;102833.69;5027326;28;20258;-64
2023/11/21 08:10:35;;;;;;;11.07;8.00;;;;;;;8.11;100.00;102976.91;5024433;28;20191;-65
2023/11/21 08:13:02;;;;;;;11.90;8.40;;;;;;;7.92;100.00;102972.25;5023892;28;20200;-64
2023/11/21 08:15:27;;;;;;;10.63;8.47;;;;;;;8.11;100.00;102981.41;5025232;28;20251;-64
2023/11/21 08:17:54;;;;;;;11.10;8.20;;;;;;;7.68;100.00;102926.22;5022438;28;20481;-65
2023/11/21 08:20:20;;;;;;;12.47;8.80;;;;;;;8.04;100.00;102985.56;5023141;28;21674;-65
2023/11/21 08:22:47;;;;;;;12.50;7.73;;;;;;;8.18;100.00;103000.44;5020737;28;20629;-65
2023/11/21 08:25:12;;;;;;;11.00;8.07;;;;;;;8.09;100.00;103004.72;5022661;28;20208;-64
2023/11/21 08:27:38;;;;;;;10.10;7.77;;;;;;;8.11;100.00;103006.31;5022318;28;20451;-64
2023/11/21 08:30:04;;;;;;;10.27;7.63;;;;;;;8.13;100.00;103012.38;5021229;28;20180;-64
2023/11/21 08:32:33;;;;;;;9.60;7.90;;;;;;;7.90;100.00;102987.59;5025765;28;21183;-64
2023/11/21 08:34:59;;;;;;;9.80;6.60;;;;;;;7.63;100.00;102960.50;5021953;28;20435;-64
2023/11/21 08:37:25;;;;;;;11.10;7.13;;;;;;;8.03;100.00;103021.28;5039520;28;20578;-64
2023/11/21 08:39:52;;;;;;;10.70;7.80;;;;;;;8.12;100.00;103036.56;5038212;28;20431;-64
2023/11/21 08:42:18;;;;;;;9.67;6.57;;;;;;;8.11;100.00;103035.72;5022653;28;20458;-63
2023/11/21 08:44:43;;;;;;;11.30;7.57;;;;;;;7.92;100.00;103014.16;5022911;28;20434;-64
2023/11/21 08:47:09;;;;;;;10.47;6.90;;;;;;;8.08;100.00;103040.47;5014859;28;20212;-64
2023/11/21 08:49:34;;;;;;;9.40;6.17;;;;;;;8.03;100.00;103050.69;5020528;28;20203;-64
2023/11/21 08:51:59;;;;;;;8.93;6.43;;;;;;;7.80;100.00;103017.88;5019852;28;20283;-64
2023/11/21 08:54:26;;;;;;;9.93;6.73;;;;;;;8.04;100.00;103060.38;5018266;28;20191;-64
2023/11/21 08:56:54;;;;;;;8.47;6.67;;;;;;;7.54;100.00;103001.31;5017508;28;20783;-64
2023/11/21 08:59:20;;;;;;;8.90;6.27;;;;;;;7.44;100.00;102988.72;5021652;28;20450;-64
2023/11/21 09:01:46;;;;;;;9.20;6.57;;;;;;;7.98;100.00;103084.97;5038226;28;20474;-64
2023/11/21 09:04:12;;;;;;;8.97;6.47;;;;;;;7.57;100.00;103031.28;5018775;28;20438;-64
2023/11/21 09:06:38;;;;;;;9.30;6.67;;;;;;;7.95;100.00;103090.56;5021914;28;20219;-64
2023/11/21 09:09:05;;;;;;;10.73;7.50;;;;;;;7.95;100.00;103069.19;5024033;28;20832;-64
2023/11/21 09:11:33;;;;;;;10.03;8.10;;;;;;;8.00;100.00;103096.38;5024021;28;20771;-64
2023/11/21 09:13:59;;;;;;;8.83;5.77;;;;;;;8.05;100.00;103091.50;5018013;28;20492;-64
2023/11/21 09:16:24;;;;;;;9.73;6.50;;;;;;;7.91;100.00;103101.50;5024932;28;20439;-63
2023/11/21 09:18:50;;;;;;;9.00;6.40;;;;;;;7.98;100.00;103103.66;5024741;28;20196;-64
2023/11/21 09:21:15;;;;;;;9.57;7.20;;;;;;;7.88;100.00;103090.22;5021907;28;20551;-64
2023/11/21 09:23:41;;;;;;;9.63;6.30;;;;;;;7.93;100.00;103112.09;5019762;28;20212;-64
2023/11/21 09:26:06;;;;;;;9.43;7.10;;;;;;;7.72;100.00;103074.59;5021355;28;20212;-64
2023/11/21 09:28:31;;;;;;;9.53;6.80;;;;;;;7.51;100.00;103037.13;5024082;28;20192;-65
2023/11/21 09:30:57;;;;;;;10.03;7.10;;;;;;;7.93;100.00;103106.75;5023710;28;20211;-64
2023/11/21 09:33:24;;;;;;;13.63;7.23;;;;;;;7.89;100.00;103095.44;5024139;28;20218;-64
2023/11/21 09:35:51;;;;;;;8.77;6.60;;;;;;;7.95;100.00;103101.25;5025465;28;20192;-64
2023/11/21 09:38:16;;;;;;;10.00;6.63;;;;;;;7.75;100.00;103066.31;5024139;28;20500;-64
2023/11/21 09:40:41;;;;;;;10.30;8.10;;;;;;;7.81;100.00;103089.88;5025537;28;20442;-64
2023/11/21 09:43:17;;;;;;;9.53;6.47;;;;;;;7.86;100.00;103105.53;5026825;28;20216;-63
2023/11/21 09:45:45;;;;;;;9.40;6.97;;;;;;;7.90;100.00;103113.19;5024237;28;20199;-64
2023/11/21 09:48:11;;;;;;;10.50;7.10;;;;;;;7.94;100.00;103105.75;5024659;28;20469;-64
2023/11/21 09:50:37;;;;;;;10.40;7.40;;;;;;;7.81;100.00;103065.84;5024287;28;20457;-64
2023/11/21 09:53:23;;;;;;;9.60;6.93;;;;;;;8.12;100.00;103114.91;5022590;28;20849;-64
2023/11/21 09:55:52;;;;;;;10.73;7.27;;;;;;;8.14;100.00;103112.13;5020723;28;21001;-64
2023/11/21 09:58:19;;;;;;;14.83;7.50;;;;;;;8.15;100.00;103100.44;5041603;28;20435;-65
2023/11/21 10:00:46;;;;;;;10.00;7.63;;;;;;;8.10;100.00;103099.97;5022329;28;20881;-64
2023/11/21 10:03:13;;;;;;;11.37;8.17;;;;;;;8.19;100.00;103095.69;5018591;28;20554;-64
2023/11/21 10:05:39;;;;;;;13.50;7.40;;;;;;;8.17;100.00;103090.47;5021018;28;20628;-64
2023/11/21 10:08:09;;;;;;;9.67;7.40;;;;;;;8.15;100.00;103095.09;5020192;28;20451;-64
2023/11/21 10:10:36;;;;;;;13.50;8.40;;;;;;;8.12;100.00;103106.06;5023387;28;20505;-64
2023/11/21 10:13:07;;;;;;;9.30;7.10;;;;;;;8.30;100.00;103115.22;5022145;28;20458;-64
2023/11/21 10:15:36;;;;;;;13.17;6.83;;;;;;;8.21;100.00;103107.94;5026547;28;20802;-64
2023/11/21 10:18:03;;;;;;;13.33;8.00;;;;;;;8.30;100.00;103101.88;5025412;28;20793;-64
2023/11/21 10:20:30;;;;;;;10.90;7.87;;;;;;;8.22;100.00;103092.78;5025756;28;20976;-63
2023/11/21 10:22:56;;;;;;;10.23;7.73;;;;;;;8.49;100.00;103101.19;5022176;28;20926;-65
2023/11/21 10:25:22;;;;;;;10.40;7.20;;;;;;;8.66;100.00;103085.53;5021037;28;20528;-64
2023/11/21 10:27:51;;;;;;;11.40;8.20;;;;;;;8.81;100.00;103093.06;5024529;28;20435;-65
2023/11/21 10:30:17;;;;;;;9.20;7.10;;;;;;;8.95;100.00;103096.41;5023213;28;20275;-64
2023/11/21 10:32:43;;;;;;;8.37;6.60;;;;;;;9.08;100.00;103107.72;5024158;28;20462;-63
2023/11/21 10:35:12;;;;;;;8.73;6.60;;;;;;;8.99;100.00;103117.41;5018799;28;20538;-64
2023/11/21 10:37:41;;;;;;;10.40;7.23;;;;;;;8.90;100.00;103099.47;5026139;28;20192;-65
2023/11/21 10:40:11;;;;;;;9.40;6.80;;;;;;;8.95;100.00;103117.81;5020001;28;20447;-64
2023/11/21 10:42:40;;;;;;;10.90;7.63;;;;;;;9.13;100.00;103104.66;5018873;28;20984;-64
2023/11/21 10:45:12;;;;;;;9.30;6.33;;;;;;;9.05;100.00;103084.78;5020342;28;20568;-64
2023/11/21 10:47:41;;;;;;;9.57;7.40;;;;;;;9.35;100.00;103103.63;5021666;28;20673;-64
2023/11/21 10:50:10;;;;;;;10.43;6.70;;;;;;;9.25;100.00;103091.03;5021106;28;20521;-65
2023/11/21 10:52:47;;;;;;;11.50;8.23;;;;;;;8.94;100.00;103039.34;5021858;28;20580;-64
2023/11/21 10:55:21;;;;;;;17.60;7.17;;;;;;;9.12;100.00;103077.03;5025368;28;20454;-65
2023/11/21 10:57:53;;;;;;;10.47;8.10;;;;;;;8.94;100.00;103052.72;5025961;28;20503;-64
2023/11/21 11:00:22;;;;;;;13.70;7.70;;;;;;;8.95;100.00;103054.41;5020762;28;20466;-64
2023/11/21 11:02:58;;;;;;;11.37;8.60;;;;;;;8.75;100.00;103020.53;5025775;28;20861;-64
2023/11/21 11:05:37;;;;;;;14.63;7.37;;;;;;;8.96;100.00;103060.63;5027629;28;21205;-64
2023/11/21 11:08:05;;;;;;;11.57;7.70;;;;;;;8.94;100.00;103057.22;5020213;28;20485;-63
2023/11/21 11:10:32;;;;;;;9.60;7.47;;;;;;;8.49;100.00;103009.41;5024545;28;20471;-63
2023/11/21 11:12:58;;;;;;;9.10;6.70;;;;;;;8.75;100.00;103056.16;5027703;28;20518;-66